Terminal Aerodrome Forecast
Issued by NWS

Home | Current Version | Previous Version | Text Only | Print | Product List | Glossary On
Versions: 1 2 3 4 5 6 7 8 9 10 11 12 13 14
484
FTUS45 KTFX 261142
TAFBZN
TAF
KBZN 261142Z 2612/2712 15008KT P6SM SCT020 BKN045
      TEMPO 2612/2614 5SM -SHRA BKN015
     FM262100 26010KT P6SM -SHRA VCTS SCT025 BKN050CB
     FM270200 22008KT P6SM -RA SCT020 BKN040=

USA.gov is the U.S. government's official web portal to all federal, state and local government web resources and services.